Flight Track Log - Related Links

Times and Time Zones

All times are in EDT time to prevent confusion due to time zone crossing. See the AAL1491 flight status page for this flight to view local times or setup timezone preferences in your user account.

Time Position Orientation Groundspeed Altitude Reporting Facility
EDT Latitude Longitude Course Direction KTS MPH feet Rate Location/Type
Mon 11:25:32 AM 38.8770 -77.0500 315° West 176 203 1,200  Level FlightAware ADS-B
Mon 11:26:02 AM 38.9000 -77.0780 317° Northwest 205 236 2,200 1,855 Climbing FlightAware ADS-B
Mon 11:26:27 AM 38.9180 -77.1030 313° West 242 278 2,900 2,000 Climbing FlightAware ADS-B
Mon 11:26:47 AM 38.9340 -77.1220 317° Northwest 259 298 3,700 3,067 Climbing FlightAware ADS-B
Mon 11:27:12 AM 38.9590 -77.1480 321° Northwest 268 308 5,200 3,360 Climbing FlightAware ADS-B
Mon 11:27:37 AM 38.9800 -77.1740 316° Northwest 271 312 6,500 3,000 Climbing FlightAware ADS-B
Mon 11:27:52 AM 38.9840 -77.1950 284° West 271 312 7,200 3,467 Climbing FlightAware ADS-B
Mon 11:28:22 AM 38.9770 -77.2540 261° West 280 322 9,100 3,600 Climbing FlightAware ADS-B
Mon 11:28:37 AM 38.9740 -77.2770 260° West 281 323 9,900 1,964 Climbing FlightAware ADS-B
Mon 11:29:17 AM 38.9660 -77.3480 262° West 327 376 10,900 1,875 Climbing FlightAware ADS-B
Mon 11:29:57 AM 38.9560 -77.4300 261° West 356 410 12,400 2,925 Climbing FlightAware ADS-B
Mon 11:30:37 AM 38.9440 -77.5160 260° West 353 406 14,800 3,300 Climbing FlightAware ADS-B
Mon 11:31:17 AM 38.9340 -77.5960 261° West 355 409 16,800 2,775 Climbing FlightAware ADS-B
Mon 11:31:57 AM 38.9230 -77.6830 261° West 364 419 18,500 2,400 Climbing FlightAware ADS-B
Mon 11:32:37 AM 38.9110 -77.7690 260° West 371 427 20,000 2,188 Climbing FlightAware ADS-B
Mon 11:33:22 AM 38.8990 -77.8690 261° West 383 441 21,600 2,080 Climbing FlightAware ADS-B
Mon 11:33:52 AM 38.8900 -77.9370 260° West 389 448 22,600 1,920 Climbing FlightAware ADS-B
Mon 11:34:37 AM 38.8760 -78.0390 260° West 397 457 24,000 1,906 Climbing FlightAware ADS-B
Mon 11:35:17 AM 38.8650 -78.1260 261° West 404 465 25,300 1,800 Climbing FlightAware ADS-B
Mon 11:35:57 AM 38.8540 -78.2240 262° West 411 473 26,400 1,553 Climbing FlightAware ADS-B
Mon 11:36:42 AM 38.8530 -78.3410 269° West 423 487 27,500 988 Climbing FlightAware ADS-B
Mon 11:37:22 AM 38.8520 -78.4410 269° West 447 514 27,800 720 Climbing FlightAware ADS-B
Mon 11:37:57 AM 38.8510 -78.5330 269° West 455 524 28,400 1,125 Climbing FlightAware ADS-B
Mon 11:38:42 AM 38.8490 -78.6510 269° West 461 531 29,300 1,400 Climbing FlightAware ADS-B
Mon 11:39:27 AM 38.8470 -78.7760 269° West 460 529 30,500 1,553 Climbing FlightAware ADS-B
Mon 11:40:07 AM 38.8460 -78.8830 269° West 458 527 31,500 1,412 Climbing FlightAware ADS-B
Mon 11:40:52 AM 38.8430 -79.0040 268° West 457 526 32,500 1,341 Climbing FlightAware ADS-B
Mon 11:41:32 AM 38.8410 -79.1120 269° West 456 525 33,400 1,482 Climbing FlightAware ADS-B
Mon 11:42:17 AM 38.8400 -79.2430 269° West 451 519 34,600 1,543 Climbing FlightAware ADS-B
Mon 11:42:42 AM 38.8390 -79.3070 269° West 446 513 35,200 1,371 Climbing FlightAware ADS-B
Mon 11:43:27 AM 38.8360 -79.4260 268° West 441 507 36,200 1,129 Climbing FlightAware ADS-B
Mon 11:44:07 AM 38.8340 -79.5310 269° West 442 509 36,800 825 Climbing FlightAware ADS-B
Mon 11:44:47 AM 38.8320 -79.6340 269° West 443 510 37,300 750 Climbing FlightAware ADS-B
Mon 11:45:27 AM 38.8290 -79.7390 268° West 443 510 37,800 525 Climbing FlightAware ADS-B
Mon 11:46:07 AM 38.8190 -79.8380 263° West 439 505 38,000 141 Climbing FlightAware ADS-B
Mon 11:46:52 AM 38.7910 -79.9530 253° West 440 506 38,000  Level FlightAware ADS-B
Mon 11:47:32 AM 38.7660 -80.0520 252° West 441 507 38,000  Level FlightAware ADS-B
Mon 11:48:02 AM 38.7470 -80.1270 252° West 443 510 38,000  Level FlightAware ADS-B
Mon 11:48:37 AM 38.7250 -80.2160 252° West 443 510 38,000  Level FlightAware ADS-B
Mon 11:49:22 AM 38.6960 -80.3270 252° West 446 513 38,000  Level FlightAware ADS-B
Mon 11:50:02 AM 38.6700 -80.4270 252° West 446 513 38,000  Level FlightAware ADS-B
Mon 11:50:37 AM 38.6450 -80.5150 250° West 447 514 38,000  Level FlightAware ADS-B
Mon 11:51:22 AM 38.6150 -80.6250 251° West 447 514 38,000  Level FlightAware ADS-B
Mon 11:51:57 AM 38.5900 -80.7130 250° West 447 514 38,000  Level FlightAware ADS-B
Mon 11:52:42 AM 38.5600 -80.8220 251° West 445 512 38,000  Level FlightAware ADS-B
Mon 11:53:22 AM 38.5320 -80.9220 250° West 445 512 38,000  Level FlightAware ADS-B
Mon 11:54:02 AM 38.5050 -81.0200 251° West 445 512 38,000  Level FlightAware ADS-B
Mon 11:54:47 AM 38.4720 -81.1350 250° West 447 514 38,000  Level FlightAware ADS-B
Mon 11:55:27 AM 38.4440 -81.2350 250° West 451 519 38,000  Level FlightAware ADS-B
Mon 11:56:12 AM 38.4130 -81.3460 250° West 452 520 38,000  Level FlightAware ADS-B
Mon 11:56:52 AM 38.3850 -81.4440 250° West 452 520 38,000  Level FlightAware ADS-B
Mon 11:57:37 AM 38.3520 -81.5610 250° West 453 521 38,000  Level FlightAware ADS-B
Mon 11:58:09 AM 38.3279 -81.6428 249° West 453 521 38,000  Level FlightAware ADS-B
Mon 11:58:46 AM 38.3016 -81.7348 250° West 454 522 38,000  Level FlightAware ADS-B
Mon 11:59:18 AM 38.2785 -81.8143 250° West 452 520 38,000  Level FlightAware ADS-B
Mon 12:00:22 PM 38.2340 -81.9690 250° West 450 518 38,000  Level FlightAware ADS-B
Mon 12:00:35 PM 38.2227 -82.0065 249° West 451 519 38,000  Level FlightAware ADS-B
Mon 12:01:05 PM 38.2010 -82.0814 250° West 449 517 38,000  Level FlightAware ADS-B
Mon 12:01:37 PM 38.1785 -82.1588 250° West 448 516 38,000  Level FlightAware ADS-B
Mon 12:02:29 PM 38.1406 -82.2879 250° West 446 513 38,000  Level FlightAware ADS-B
Mon 12:03:07 PM 38.1150 -82.3760 250° West 442 509 38,000  Level FlightAware ADS-B
Mon 12:03:27 PM 38.0994 -82.4277 249° West 442 509 38,000  Level FlightAware ADS-B
Mon 12:04:02 PM 38.0746 -82.5110 249° West 439 505 38,000  Level FlightAware ADS-B
Mon 12:04:32 PM 38.0540 -82.5780 249° West 439 505 38,000  Level FlightAware ADS-B
Mon 12:05:17 PM 38.0210 -82.6890 249° West 442 509 38,000  Level FlightAware ADS-B
Mon 12:05:57 PM 37.9930 -82.7840 250° West 443 510 38,000  Level FlightAware ADS-B
Mon 12:06:42 PM 37.9610 -82.8910 249° West 440 506 38,000  Level FlightAware ADS-B
Mon 12:07:08 PM 37.9398 -82.9623 249° West 441 507 38,000  Level FlightAware ADS-B
Mon 12:07:42 PM 37.9157 -83.0425 249° West 440 506 38,000  Level FlightAware ADS-B
Mon 12:08:13 PM 37.8934 -83.1163 249° West 439 505 38,000  Level FlightAware ADS-B
Mon 12:08:49 PM 37.8668 -83.2036 249° West 438 504 38,000  Level FlightAware ADS-B
Mon 12:09:19 PM 37.8447 -83.2758 249° West 438 504 38,000  Level FlightAware ADS-B
Mon 12:09:50 PM 37.8225 -83.3481 249° West 437 503 38,000  Level FlightAware ADS-B
Mon 12:11:30 PM 37.7490 -83.5876 249° West 438 504 38,000  Level FlightAware ADS-B
Mon 12:12:15 PM 37.7153 -83.6964 249° West 444 511 38,000  Level FlightAware ADS-B
Mon 12:13:01 PM 37.6807 -83.8078 249° West 445 512 38,000  Level FlightAware ADS-B
Mon 12:13:47 PM 37.6590 -83.8710 247° West 443 510 38,000  Level FlightAware ADS-B
Mon 12:14:32 PM 37.6140 -84.0200 249° West 449 517 38,000  Level FlightAware ADS-B
Mon 12:15:17 PM 37.5790 -84.1330 249° West 450 518 38,000  Level FlightAware ADS-B
Mon 12:15:52 PM 37.5530 -84.2140 248° West 451 519 38,000  Level FlightAware ADS-B
Mon 12:16:37 PM 37.5200 -84.3190 248° West 451 519 38,000  Level FlightAware ADS-B
Mon 12:18:37 PM 37.4224 -84.6266 248° West 454 522 38,000  Level FlightAware ADS-B
Mon 12:19:21 PM 37.3870 -84.7368 248° West 462 532 38,000  Level FlightAware ADS-B
Mon 12:19:54 PM 37.3613 -84.8168 248° West 463 533 38,000  Level FlightAware ADS-B
Mon 12:20:52 PM 37.3141 -84.9630 248° West 464 534 38,000  Level FlightAware ADS-B
Mon 12:21:22 PM 37.2898 -85.0383 248° West 465 535 38,000  Level FlightAware ADS-B
Mon 12:21:54 PM 37.2645 -85.1162 248° West 464 534 38,000  Level FlightAware ADS-B
Mon 12:22:24 PM 37.2399 -85.1916 248° West 461 531 38,000  Level FlightAware ADS-B
Mon 12:22:58 PM 37.2125 -85.2750 248° West 457 526 38,000  Level FlightAware ADS-B
Mon 12:23:50 PM 37.1713 -85.4008 248° West 455 524 38,000  Level FlightAware ADS-B
Mon 12:24:23 PM 37.1444 -85.4826 248° West 455 524 38,000  Level FlightAware ADS-B
Mon 12:25:01 PM 37.1143 -85.5742 248° West 456 525 38,000  Level FlightAware ADS-B
Mon 12:25:39 PM 37.0840 -85.6659 248° West 456 525 38,000  Level FlightAware ADS-B
Mon 12:26:16 PM 37.0542 -85.7558 247° West 456 525 38,000  Level FlightAware ADS-B
Mon 12:26:55 PM 37.0226 -85.8505 247° West 454 522 38,000  Level FlightAware ADS-B
Mon 12:27:27 PM 36.9968 -85.9276 247° West 454 522 38,000  Level FlightAware ADS-B
Mon 12:27:58 PM 36.9719 -86.0020 247° West 452 520 38,000  Level FlightAware ADS-B
Mon 12:28:28 PM 36.9476 -86.0742 247° West 451 519 38,000  Level FlightAware ADS-B
Mon 12:29:03 PM 36.9191 -86.1588 247° West 449 517 38,000  Level FlightAware ADS-B
Mon 12:30:01 PM 36.8729 -86.2957 247° West 446 513 38,000  Level FlightAware ADS-B
Mon 12:30:32 PM 36.8481 -86.3687 247° West 445 512 38,000  Level FlightAware ADS-B
Mon 12:31:20 PM 36.8093 -86.4829 247° West 443 510 38,000  Level FlightAware ADS-B
Mon 12:31:51 PM 36.7845 -86.5554 247° West 441 507 38,000  Level FlightAware ADS-B
Mon 12:32:22 PM 36.7602 -86.6264 247° West 441 507 38,000  Level FlightAware ADS-B
Mon 12:32:57 PM 36.7321 -86.7083 247° West 441 507 38,000  Level FlightAware ADS-B
Mon 12:33:28 PM 36.7070 -86.7819 247° West 441 507 38,000  Level FlightAware ADS-B
Mon 12:33:59 PM 36.6825 -86.8528 247° West 442 509 38,000  Level FlightAware ADS-B
Mon 12:35:07 PM 36.6290 -87.0070 247° West 441 507 38,000  Level FlightAware ADS-B
Mon 12:35:52 PM 36.5920 -87.1130 247° West 441 507 38,000  Level FlightAware ADS-B
Mon 12:36:32 PM 36.5600 -87.2060 247° West 439 505 38,000  Level FlightAware ADS-B
Mon 12:37:12 PM 36.5280 -87.2970 246° West 437 503 38,000  Level FlightAware ADS-B
Mon 12:37:57 PM 36.4930 -87.3980 247° West 435 501 38,000  Level FlightAware ADS-B
Mon 12:38:37 PM 36.4600 -87.4920 246° West 433 498 38,000  Level FlightAware ADS-B
Mon 12:39:17 PM 36.4280 -87.5820 246° West 433 498 38,000  Level FlightAware ADS-B
Mon 12:40:02 PM 36.3900 -87.6870 246° West 434 499 38,000  Level FlightAware ADS-B
Mon 12:40:42 PM 36.3580 -87.7780 246° West 436 502 38,000  Level FlightAware ADS-B
Mon 12:41:27 PM 36.3230 -87.8770 246° West 437 503 38,000  Level FlightAware ADS-B
Mon 12:42:07 PM 36.2890 -87.9710 246° West 437 503 38,000  Level FlightAware ADS-B
Mon 12:42:42 PM 36.2620 -88.0480 247° West 438 504 38,000  Level FlightAware ADS-B
Mon 12:43:32 PM 36.2210 -88.1620 246° West 440 506 38,000  Level FlightAware ADS-B
Mon 12:44:12 PM 36.1870 -88.2570 246° West 441 507 38,000  Level FlightAware ADS-B
Mon 12:44:57 PM 36.1530 -88.3460 245° Southwest 441 507 38,000  Level FlightAware ADS-B
Mon 12:45:56 PM 36.1047 -88.4764 245° Southwest 440 506 38,000  Level Memphis Center
Mon 12:46:56 PM 36.0544 -88.6136 246° West 440 506 38,000  Level Memphis Center
Mon 12:47:56 PM 36.0022 -88.7558 246° West 450 518 38,000  Level Memphis Center
Mon 12:48:56 PM 35.9497 -88.8956 245° Southwest 450 518 38,000  Level Memphis Center
Mon 12:49:56 PM 35.8972 -89.0372 245° Southwest 450 518 38,000  Level Memphis Center
Mon 12:50:56 PM 35.8444 -89.1789 245° Southwest 450 518 38,000  Level Memphis Center
Mon 12:51:56 PM 35.7894 -89.3206 244° Southwest 450 518 38,000  Level Memphis Center
Mon 12:52:56 PM 35.7383 -89.4619 246° West 455 524 38,000  Level Memphis Center
Mon 12:53:56 PM 35.6808 -89.6158 245° Southwest 455 524 38,000  Level Memphis Center
Mon 12:54:56 PM 35.6358 -89.7542 248° West 444 511 38,000  Level Memphis Center
Mon 12:55:56 PM 35.5842 -89.8900 245° Southwest 444 511 38,000  Level Memphis Center
Mon 12:56:00 PM 35.5740 -89.8855 245° Southwest  Level FlightAware Approximate
Mon 12:56:56 PM 35.5347 -90.0278 246° West 444 511 38,000  Level Memphis Center
Mon 12:57:56 PM 35.4808 -90.1658 244° Southwest 444 511 38,000  Level Memphis Center
Mon 12:58:56 PM 35.4267 -90.3036 244° Southwest 449 517 38,000  Level Memphis Center
Mon 12:59:56 PM 35.3744 -90.4358 244° Southwest 444 511 38,000  Level Memphis Center
Mon 01:01:00 PM 35.3205 -90.5707 244° Southwest  Level FlightAware Approximate
Mon 01:01:56 PM 35.2781 -90.7056 244° Southwest 444 511 38,000  Level Memphis Center
Mon 01:02:56 PM 35.2339 -90.8450 249° West 434 499 38,000  Level Memphis Center
Mon 01:03:56 PM 35.1894 -90.9822 248° West 434 499 38,000  Level Memphis Center
Mon 01:04:56 PM 35.1428 -91.1239 248° West 434 499 38,000  Level Memphis Center
Mon 01:05:56 PM 35.0981 -91.2606 248° West 434 499 38,000  Level Memphis Center
Mon 01:06:56 PM 35.0511 -91.3944 247° West 434 499 38,000  Level Memphis Center
Mon 01:07:56 PM 35.0125 -91.5108 248° West 429 494 38,000  Level Memphis Center
Mon 01:08:56 PM 34.9675 -91.6419 247° West 429 494 38,000  Level Memphis Center
Mon 01:09:56 PM 34.9242 -91.7703 248° West 429 494 38,000  Level Memphis Center
Mon 01:10:56 PM 34.8789 -91.9014 247° West 424 488 38,000  Level Memphis Center
Mon 01:11:56 PM 34.8356 -92.0344 248° West 424 488 38,000  Level Memphis Center
Mon 01:12:56 PM 34.7878 -92.1650 246° West 419 482 38,000  Level Memphis Center
Mon 01:13:56 PM 34.7442 -92.2956 248° West 425 489 38,000  Level Memphis Center
Mon 01:14:56 PM 34.6958 -92.4383 248° West 425 489 38,000  Level Memphis Center
Mon 01:20:22 PM 34.4530 -93.1400 248° West 412 474 38,000  Level FlightAware ADS-B
Mon 01:21:07 PM 34.4210 -93.2340 248° West 411 473 38,000  Level FlightAware ADS-B
Mon 01:21:47 PM 34.3950 -93.3060 246° West 411 473 38,000  Level FlightAware ADS-B
Mon 01:22:22 PM 34.3630 -93.3980 247° West 409 471 38,000  Level FlightAware ADS-B
Mon 01:22:57 PM 34.3370 -93.4720 247° West 411 473 38,000  Level FlightAware ADS-B
Mon 01:23:32 PM 34.3130 -93.5360 246° West 411 473 38,000  Level FlightAware ADS-B
Mon 01:24:02 PM 34.2930 -93.5900 246° West 411 473 38,000  Level FlightAware ADS-B
Mon 01:24:52 PM 34.2600 -93.6790 246° West 411 473 38,000  Level FlightAware ADS-B
Mon 01:25:32 PM 34.2340 -93.7510 246° West 411 473 38,000  Level FlightAware ADS-B
Mon 01:26:22 PM 34.2010 -93.8400 246° West 411 473 38,000  Level FlightAware ADS-B
Mon 01:26:52 PM 34.1810 -93.8930 245° Southwest 411 473 38,000  Level FlightAware ADS-B
Mon 01:27:22 PM 34.1620 -93.9470 247° West 411 473 38,000  Level FlightAware ADS-B
Mon 01:28:02 PM 34.1350 -94.0180 245° Southwest 411 473 38,000  Level FlightAware ADS-B
Mon 01:28:52 PM 34.1030 -94.1070 247° West 411 473 38,000  Level FlightAware ADS-B
Mon 01:29:32 PM 34.0760 -94.1790 246° West 411 473 38,000 -1,271 Level FlightAware ADS-B
Mon 01:30:17 PM 34.0700 -94.4010 268° West 395 455 36,200 -1,765 Descending FlightAware ADS-B
Mon 01:30:57 PM 34.0400 -94.4910 248° West 398 458 35,500 -2,250 Descending FlightAware ADS-B
Mon 01:31:37 PM 34.0110 -94.5790 248° West 419 482 33,200 -1,765 Descending FlightAware ADS-B
Mon 01:32:22 PM 33.9830 -94.6650 249° West 419 482 33,000 -141 Descending FlightAware ADS-B
Mon 01:33:02 PM 33.9580 -94.7390 248° West 419 482 33,000  Level FlightAware ADS-B
Mon 01:33:42 PM 33.9330 -94.8120 248° West 419 482 33,000  Level FlightAware ADS-B
Mon 01:34:22 PM 33.9090 -94.8860 249° West 419 482 33,000  Level FlightAware ADS-B
Mon 01:35:02 PM 33.8840 -94.9590 248° West 419 482 33,000 -2,775 Level FlightAware ADS-B
Mon 01:35:42 PM 33.8330 -95.1210 249° West 439 505 29,300 -3,225 Descending FlightAware ADS-B
Mon 01:36:22 PM 33.8010 -95.2180 248° West 441 507 28,700 -975 Descending FlightAware ADS-B
Mon 01:37:02 PM 33.7710 -95.3060 248° West 439 505 28,000 -1,050 Descending FlightAware ADS-B
Mon 01:37:42 PM 33.7400 -95.3990 248° West 434 499 27,300 -1,059 Descending FlightAware ADS-B
Mon 01:38:27 PM 33.7070 -95.4990 248° West 425 489 26,500 -975 Descending FlightAware ADS-B
Mon 01:39:02 PM 33.6820 -95.5720 248° West 421 484 26,000 -1,440 Descending FlightAware ADS-B
Mon 01:39:42 PM 33.6520 -95.6600 248° West 407 468 24,700 -1,875 Descending FlightAware ADS-B
Mon 01:40:22 PM 33.6250 -95.7400 248° West 377 434 23,500 -2,400 Descending FlightAware ADS-B
Mon 01:41:07 PM 33.5960 -95.8250 248° West 365 420 21,300 -2,824 Descending FlightAware ADS-B
Mon 01:41:47 PM 33.5710 -95.9000 248° West 351 404 19,500 -2,259 Descending FlightAware ADS-B
Mon 01:42:32 PM 33.5450 -95.9760 248° West 332 382 18,100 -1,933 Descending FlightAware ADS-B
Mon 01:43:17 PM 33.5190 -96.0530 248° West 314 361 16,600 -1,600 Descending FlightAware ADS-B
Mon 01:44:02 PM 33.4960 -96.1190 247° West 285 328 15,700 -1,059 Descending FlightAware ADS-B
Mon 01:44:42 PM 33.4760 -96.1760 247° West 273 314 15,100 -706 Descending FlightAware ADS-B
Mon 01:45:27 PM 33.4540 -96.2400 248° West 273 314 14,700 -1,341 Descending FlightAware ADS-B
Mon 01:46:07 PM 33.4350 -96.2940 247° West 276 318 13,200 -2,400 Descending FlightAware ADS-B
Mon 01:46:52 PM 33.4130 -96.3610 249° West 284 327 11,300 -1,733 Descending FlightAware ADS-B
Mon 01:47:37 PM 33.3880 -96.4240 245° Southwest 276 318 10,600 -1,200 Descending FlightAware ADS-B
Mon 01:48:17 PM 33.3630 -96.4760 240° Southwest 270 311 9,600 -1,527 Descending FlightAware ADS-B
Mon 01:48:32 PM 33.3520 -96.4950 235° Southwest 269 310 9,200 -1,500 Descending FlightAware ADS-B
Mon 01:48:57 PM 33.3350 -96.5240 235° Southwest 268 308 8,600 -1,418 Descending FlightAware ADS-B
Mon 01:49:27 PM 33.3140 -96.5600 235° Southwest 267 307 7,900 -1,418 Descending FlightAware ADS-B
Mon 01:49:52 PM 33.2960 -96.5910 235° Southwest 265 305 7,300 -1,350 Descending FlightAware ADS-B
Mon 01:50:07 PM 33.2850 -96.6100 235° Southwest 262 302 7,000 -1,333 Descending FlightAware ADS-B
Mon 01:50:37 PM 33.2650 -96.6450 236° Southwest 257 296 6,300 -1,333 Descending FlightAware ADS-B
Mon 01:50:52 PM 33.2560 -96.6600 234° Southwest 257 296 6,000 -1,200 Descending FlightAware ADS-B
Mon 01:51:12 PM 33.2430 -96.6820 235° Southwest 254 292 5,600 -982 Descending FlightAware ADS-B
Mon 01:51:47 PM 33.2190 -96.7240 236° Southwest 244 281 5,100 -600 Descending FlightAware ADS-B
Mon 01:52:02 PM 33.2080 -96.7420 234° Southwest 242 278 5,100  Level FlightAware ADS-B
Mon 01:52:27 PM 33.1920 -96.7690 235° Southwest 240 276 5,100  Level FlightAware ADS-B
Mon 01:52:57 PM 33.1740 -96.7990 234° Southwest 229 264 5,100  Level FlightAware ADS-B
Mon 01:53:22 PM 33.1590 -96.8250 235° Southwest 223 257 5,100 109 Level FlightAware ADS-B
Mon 01:53:52 PM 33.1410 -96.8560 235° Southwest 217 250 5,200 -100 Climbing FlightAware ADS-B
Mon 01:54:22 PM 33.1240 -96.8840 234° Southwest 198 228 5,000 -764 Descending FlightAware ADS-B
Mon 01:54:47 PM 33.1120 -96.9060 237° Southwest 187 215 4,500 -1,091 Descending FlightAware ADS-B
Mon 01:55:17 PM 33.0970 -96.9310 234° Southwest 173 199 4,000 -1,309 Descending FlightAware ADS-B
Mon 01:55:42 PM 33.0860 -96.9500 235° Southwest 175 201 3,300 -1,418 Descending FlightAware ADS-B
Mon 01:56:12 PM 33.0720 -96.9720 233° Southwest 178 205 2,700 -1,067 Descending FlightAware ADS-B
Mon 01:56:27 PM 33.0620 -96.9810 217° Southwest 161 185 2,500 -514 Descending FlightAware ADS-B
Mon 01:56:47 PM 33.0490 -96.9910 213° Southwest 155 178 2,400 -120 Descending FlightAware ADS-B
Mon 01:57:17 PM 33.0310 -97.0050 213° Southwest 155 178 2,400  Level FlightAware ADS-B
Mon 01:57:42 PM 33.0160 -97.0170 214° Southwest 162 186 2,400 -109 Level FlightAware ADS-B
Mon 01:58:12 PM 32.9980 -97.0250 200° South 153 176 2,300 -500 Descending FlightAware ADS-B
Mon 01:58:42 PM 32.9760 -97.0260 182° South 135 155 1,900 -840 Descending FlightAware ADS-B
Mon 01:59:02 PM 32.9650 -97.0260 180° South 128 147 1,600 -400 Descending FlightAware ADS-B
Mon 01:59:27 PM 32.9510 -97.0260 180° South 128 147 1,600  Level FlightAware ADS-B

Login

Don't have an account? Register now (free) for customized features, flight alerts, and more!